createdAt,value
2023-03-13T00:01:36.554Z,3.92
2023-03-13T00:04:03.900Z,3.45
2023-03-13T00:06:34.401Z,4.30
2023-03-13T00:09:02.756Z,4.32
2023-03-13T00:11:29.996Z,4.10
2023-03-13T00:14:05.152Z,4.28
2023-03-13T00:16:37.852Z,4.15
2023-03-13T00:19:06.404Z,4.10
2023-03-13T00:21:41.535Z,4.32
2023-03-13T00:24:11.571Z,3.40
2023-03-13T00:26:38.723Z,3.63
2023-03-13T00:29:08.311Z,4.20
2023-03-13T00:31:38.537Z,4.28
2023-03-13T00:34:06.012Z,3.15
2023-03-13T00:36:37.030Z,2.97
2023-03-13T00:39:07.958Z,3.35
2023-03-13T00:41:37.403Z,3.42
2023-03-13T00:44:08.889Z,2.95
2023-03-13T00:46:39.723Z,3.63
2023-03-13T00:49:07.257Z,3.15
2023-03-13T00:51:40.246Z,3.05
2023-03-13T00:54:07.501Z,3.65
2023-03-13T00:56:39.805Z,3.55
2023-03-13T01:02:30.077Z,3.55
2023-03-13T01:04:59.795Z,4.55
2023-03-13T01:07:27.660Z,3.95
2023-03-13T01:09:55.050Z,3.53
2023-03-13T01:12:22.471Z,3.38
2023-03-13T01:14:53.500Z,3.80
2023-03-13T01:17:22.637Z,3.15
2023-03-13T01:19:56.539Z,3.65
2023-03-13T01:24:55.168Z,3.92
2023-03-13T01:27:22.541Z,3.83
2023-03-13T01:29:50.051Z,4.57
2023-03-13T01:32:17.289Z,6.35
2023-03-13T01:34:44.479Z,5.57
2023-03-13T01:37:11.684Z,6.63
2023-03-13T01:39:39.483Z,5.68
2023-03-13T01:42:07.292Z,5.75
2023-03-13T01:45:30.121Z,5.47
2023-03-13T01:47:57.508Z,5.93
2023-03-13T01:50:40.758Z,5.15
2023-03-13T01:53:20.014Z,6.32
2023-03-13T01:55:47.750Z,5.68
2023-03-13T01:58:15.291Z,4.35
2023-03-13T02:00:55.056Z,4.68
2023-03-13T02:03:35.721Z,4.20
2023-03-13T02:06:14.904Z,4.57
2023-03-13T02:08:57.854Z,4.20
2023-03-13T02:12:00.062Z,4.93
2023-03-13T02:14:33.064Z,4.45
2023-03-13T02:17:08.014Z,4.32
2023-03-13T02:19:46.152Z,3.85
2023-03-13T02:22:59.992Z,4.13
2023-03-13T02:25:48.900Z,4.35
2023-03-13T02:28:35.351Z,4.35
2023-03-13T02:31:10.910Z,3.58
2023-03-13T02:33:47.306Z,4.20
2023-03-13T02:36:22.619Z,4.50
2023-03-13T02:38:59.862Z,5.00
2023-03-13T02:41:33.101Z,3.60
2023-03-13T02:44:05.909Z,4.10
2023-03-13T02:46:52.664Z,4.30
2023-03-13T02:49:52.492Z,4.72
2023-03-13T02:52:29.933Z,4.22
2023-03-13T02:55:05.388Z,3.97
2023-03-13T02:57:39.119Z,4.05
2023-03-13T03:00:15.601Z,4.75
2023-03-13T03:02:43.106Z,4.25
2023-03-13T03:05:11.161Z,3.95
2023-03-13T03:07:38.834Z,4.45
2023-03-13T03:10:08.293Z,4.53
2023-03-13T03:12:36.211Z,5.13
2023-03-13T03:15:05.147Z,4.20
2023-03-13T03:17:33.904Z,4.45
2023-03-13T03:20:01.075Z,4.65
2023-03-13T03:22:31.222Z,5.10
2023-03-13T03:24:58.464Z,4.57
2023-03-13T03:27:25.695Z,4.15
2023-03-13T03:29:54.614Z,4.72
2023-03-13T03:32:22.252Z,5.03
2023-03-13T03:34:50.447Z,4.93
2023-03-13T03:37:17.638Z,4.53
2023-03-13T03:39:44.930Z,4.30
2023-03-13T03:42:12.143Z,4.20
2023-03-13T03:44:39.270Z,4.00
2023-03-13T03:47:06.636Z,5.05
2023-03-13T03:49:38.250Z,4.00
2023-03-13T03:52:06.402Z,3.90
2023-03-13T03:54:37.723Z,5.07
2023-03-13T03:57:05.074Z,4.43
2023-03-13T03:59:32.842Z,4.22
2023-03-13T04:02:08.893Z,4.50
2023-03-13T04:04:37.122Z,4.55
2023-03-13T04:07:11.011Z,3.88
2023-03-13T04:09:39.833Z,5.32
2023-03-13T04:12:09.277Z,5.30
2023-03-13T04:14:41.605Z,4.85
2023-03-13T04:17:11.100Z,5.18
2023-03-13T04:19:38.776Z,4.25
2023-03-13T04:22:06.292Z,4.90
2023-03-13T04:24:33.946Z,4.35
2023-03-13T04:27:02.782Z,4.47
2023-03-13T04:29:31.059Z,3.80
2023-03-13T04:32:33.663Z,4.10
2023-03-13T04:35:19.525Z,4.07
2023-03-13T04:38:02.970Z,4.22
2023-03-13T04:40:52.948Z,4.15
2023-03-13T04:43:42.812Z,4.10
2023-03-13T04:46:42.248Z,4.20
2023-03-13T04:49:28.180Z,4.57
2023-03-13T04:52:11.530Z,4.80
2023-03-13T04:55:11.437Z,4.25
2023-03-13T04:58:02.139Z,4.55
2023-03-13T05:00:35.512Z,4.47
2023-03-13T05:03:31.218Z,4.68
2023-03-13T05:06:24.203Z,4.53
2023-03-13T05:09:32.005Z,4.50
2023-03-13T05:12:32.451Z,4.28
2023-03-13T05:15:12.535Z,4.70
2023-03-13T05:18:08.028Z,3.90
2023-03-13T05:20:51.434Z,4.25
2023-03-13T05:23:30.969Z,4.30
2023-03-13T05:26:25.932Z,3.92
2023-03-13T05:29:22.377Z,5.47
2023-03-13T05:32:13.080Z,5.55
2023-03-13T05:41:05.231Z,5.50
2023-03-13T05:47:18.608Z,4.35
2023-03-13T05:50:14.901Z,5.38
2023-03-13T05:53:37.601Z,6.40
2023-03-13T05:56:31.409Z,6.15
2023-03-13T05:59:11.767Z,5.90
2023-03-13T06:01:59.421Z,5.95
2023-03-13T06:04:35.792Z,5.03
2023-03-13T06:07:06.247Z,5.00
2023-03-13T06:09:33.553Z,4.35
2023-03-13T06:12:03.791Z,4.05
2023-03-13T06:17:18.360Z,5.18
2023-03-13T06:19:52.797Z,5.38
2023-03-13T06:22:32.242Z,4.45
2023-03-13T06:25:08.604Z,5.40
2023-03-13T06:27:40.613Z,5.50
2023-03-13T06:30:14.177Z,4.78
2023-03-13T06:35:19.648Z,4.97
2023-03-13T06:37:57.129Z,5.32
2023-03-13T06:40:25.889Z,5.25
2023-03-13T06:45:53.094Z,5.07
2023-03-13T06:48:23.393Z,5.60
2023-03-13T06:50:50.758Z,5.82
2023-03-13T06:53:20.567Z,5.03
2023-03-13T06:55:49.372Z,5.78
2023-03-13T06:58:31.120Z,5.00
2023-03-13T07:01:09.183Z,5.00
2023-03-13T07:03:45.233Z,4.95
2023-03-13T07:06:13.032Z,5.38
2023-03-13T07:08:40.232Z,5.32
2023-03-13T07:11:12.970Z,5.78
2023-03-13T07:13:42.652Z,5.55
2023-03-13T07:16:12.848Z,5.40
2023-03-13T07:18:44.934Z,7.50
2023-03-13T07:21:13.150Z,7.05
2023-03-13T07:23:43.305Z,7.57
2023-03-13T07:26:15.768Z,7.78
2023-03-13T07:28:45.856Z,7.15
2023-03-13T07:31:24.136Z,8.27
2023-03-13T07:33:56.783Z,7.32
2023-03-13T07:36:24.348Z,6.65
2023-03-13T07:38:59.538Z,6.85
2023-03-13T07:41:29.751Z,6.40
2023-03-13T07:43:56.894Z,5.40
2023-03-13T07:46:25.759Z,6.05
2023-03-13T07:48:55.397Z,5.30
2023-03-13T07:51:40.769Z,6.47
2023-03-13T07:54:10.535Z,6.47
2023-03-13T07:56:37.732Z,5.57
2023-03-13T07:59:05.356Z,6.47
2023-03-13T08:01:35.000Z,6.40
2023-03-13T08:04:02.492Z,7.95
2023-03-13T08:06:33.960Z,8.77
2023-03-13T08:09:03.921Z,8.55
2023-03-13T08:11:31.022Z,9.05
2023-03-13T08:13:59.058Z,9.13
2023-03-13T08:16:35.069Z,9.73
2023-03-13T08:19:06.333Z,9.95
2023-03-13T08:21:38.014Z,9.95
2023-03-13T08:24:08.144Z,9.85
2023-03-13T08:26:38.272Z,10.07
2023-03-13T08:29:08.507Z,10.63
2023-03-13T08:31:42.476Z,10.45
2023-03-13T08:34:13.240Z,9.38
2023-03-13T08:36:43.904Z,10.02
2023-03-13T08:39:17.378Z,7.72
2023-03-13T08:44:19.314Z,5.93
2023-03-13T08:46:52.590Z,5.40
2023-03-13T08:49:20.049Z,5.43
2023-03-13T08:51:47.567Z,6.30
2023-03-13T08:54:14.813Z,5.68
2023-03-13T08:56:43.782Z,5.50
2023-03-13T08:59:11.561Z,5.85
2023-03-13T09:01:41.071Z,5.57
2023-03-13T09:04:11.559Z,5.40
2023-03-13T09:06:41.628Z,6.32
2023-03-13T09:09:09.942Z,6.05
2023-03-13T09:11:39.548Z,5.55
2023-03-13T09:14:07.792Z,5.72
2023-03-13T09:16:36.267Z,6.63
2023-03-13T09:19:03.709Z,5.45
2023-03-13T09:21:35.892Z,6.05
2023-03-13T09:24:03.278Z,5.90
2023-03-13T09:26:31.218Z,6.50
2023-03-13T09:28:58.875Z,6.78
2023-03-13T09:31:29.118Z,6.43
2023-03-13T09:33:56.444Z,6.72
2023-03-13T09:36:25.234Z,6.38
2023-03-13T09:38:58.140Z,6.47
2023-03-13T09:41:40.554Z,5.78
2023-03-13T09:44:15.241Z,5.63
2023-03-13T09:47:10.173Z,5.53
2023-03-13T09:49:46.379Z,5.07
2023-03-13T09:52:23.684Z,4.57
2023-03-13T09:55:20.542Z,4.32
2023-03-13T09:58:16.267Z,4.38
2023-03-13T10:00:58.677Z,4.90
2023-03-13T10:03:30.019Z,4.88
2023-03-13T10:06:01.363Z,5.03
2023-03-13T10:08:36.750Z,5.55
2023-03-13T10:12:19.796Z,5.32
2023-03-13T10:15:18.089Z,5.57
2023-03-13T10:17:47.995Z,5.20
2023-03-13T10:20:23.038Z,5.20
2023-03-13T10:23:07.948Z,4.60
2023-03-13T10:25:45.854Z,5.40
2023-03-13T10:28:16.405Z,5.15
2023-03-13T10:30:59.503Z,5.75
2023-03-13T10:33:51.731Z,5.35
2023-03-13T10:36:24.700Z,5.35
2023-03-13T10:39:16.826Z,5.25
2023-03-13T10:41:44.134Z,5.00
2023-03-13T10:44:20.148Z,5.28
2023-03-13T10:46:49.605Z,5.45
2023-03-13T10:49:28.816Z,5.43
2023-03-13T10:52:10.849Z,5.85
2023-03-13T10:54:52.888Z,5.15
2023-03-13T10:57:26.146Z,5.47
2023-03-13T10:59:54.577Z,5.80
2023-03-13T11:02:27.372Z,5.10
2023-03-13T11:04:55.583Z,4.93
2023-03-13T11:07:44.485Z,6.43
2023-03-13T11:10:25.376Z,6.30
2023-03-13T11:12:55.194Z,6.07
2023-03-13T11:15:35.757Z,5.70
2023-03-13T11:18:21.134Z,5.78
2023-03-13T11:20:49.524Z,5.57
2023-03-13T11:23:29.591Z,6.18
2023-03-13T11:26:05.920Z,5.45
2023-03-13T11:28:57.970Z,5.93
2023-03-13T11:31:37.189Z,5.25
2023-03-13T11:34:23.919Z,4.82
2023-03-13T11:37:12.839Z,5.82
2023-03-13T11:40:22.972Z,5.18
2023-03-13T11:43:17.844Z,5.38
2023-03-13T11:46:34.394Z,5.40
2023-03-13T11:49:28.819Z,6.15
2023-03-13T11:52:39.411Z,6.03
2023-03-13T11:55:39.008Z,5.88
2023-03-13T11:58:40.073Z,6.43
2023-03-13T12:01:41.316Z,6.55
2023-03-13T12:04:23.081Z,6.10
2023-03-13T12:07:21.561Z,7.25
2023-03-13T12:10:41.507Z,6.63
2023-03-13T12:13:38.207Z,5.30
2023-03-13T12:16:43.938Z,6.60
2023-03-13T12:20:08.950Z,7.20
2023-03-13T12:23:03.764Z,7.63
2023-03-13T12:26:00.627Z,6.97
2023-03-13T12:28:36.535Z,5.90
2023-03-13T12:31:27.995Z,5.93
2023-03-13T12:34:16.862Z,7.75
2023-03-13T12:37:03.401Z,6.07
2023-03-13T12:39:40.331Z,7.30
2023-03-13T12:42:43.942Z,8.25
2023-03-13T12:45:31.519Z,6.90
2023-03-13T12:48:23.457Z,8.30
2023-03-13T12:54:32.247Z,9.55
2023-03-13T12:58:14.053Z,9.43
2023-03-13T13:00:50.214Z,9.80
2023-03-13T13:03:34.660Z,11.25
2023-03-13T13:09:14.129Z,11.13
2023-03-13T13:11:45.933Z,12.57
2023-03-13T13:14:19.641Z,11.63
2023-03-13T13:17:16.519Z,8.50
2023-03-13T13:19:46.219Z,8.35
2023-03-13T13:22:39.403Z,11.13
2023-03-13T13:25:35.746Z,9.70
2023-03-13T13:28:30.888Z,9.52
2023-03-13T13:31:43.194Z,9.02
2023-03-13T13:34:31.364Z,8.57
2023-03-13T13:37:04.412Z,9.30
2023-03-13T13:39:52.884Z,8.30
2023-03-13T13:42:45.098Z,8.68
2023-03-13T13:45:22.287Z,8.88
2023-03-13T13:48:35.918Z,9.07
2023-03-13T13:51:11.349Z,8.80
2023-03-13T13:53:56.055Z,8.48
2023-03-13T13:56:32.157Z,8.57
2023-03-13T13:59:13.576Z,7.43
2023-03-13T14:01:44.329Z,7.05
2023-03-13T14:04:33.085Z,8.05
2023-03-13T14:07:03.930Z,6.57
2023-03-13T14:09:31.015Z,7.63
2023-03-13T14:12:03.876Z,7.32
2023-03-13T14:14:31.066Z,6.90
2023-03-13T14:16:58.361Z,7.38
2023-03-13T14:19:31.306Z,7.00
2023-03-13T14:22:04.424Z,6.80
2023-03-13T14:24:32.021Z,7.20
2023-03-13T14:27:04.290Z,7.05
2023-03-13T14:29:31.526Z,5.65
2023-03-13T14:32:02.552Z,6.07
2023-03-13T14:34:32.734Z,5.63
2023-03-13T14:37:17.317Z,6.20
2023-03-13T14:39:49.293Z,5.63
2023-03-13T14:42:22.991Z,7.53
2023-03-13T14:44:50.695Z,5.28
2023-03-13T14:47:36.969Z,6.32
2023-03-13T14:50:10.712Z,6.13
2023-03-13T14:52:40.044Z,6.25
2023-03-13T14:55:24.687Z,6.45
2023-03-13T14:57:56.972Z,5.35
2023-03-13T15:00:43.686Z,5.07
2023-03-13T15:03:17.586Z,6.53
2023-03-13T15:05:47.957Z,5.20
2023-03-13T15:08:25.082Z,4.78
2023-03-13T15:10:52.269Z,5.15
2023-03-13T15:13:37.416Z,5.93
2023-03-13T15:16:15.733Z,5.50
2023-03-13T15:18:43.427Z,5.25
2023-03-13T15:21:13.470Z,5.82
2023-03-13T15:23:42.670Z,5.20
2023-03-13T15:26:13.006Z,5.78
2023-03-13T15:28:43.232Z,5.90
2023-03-13T15:31:18.989Z,5.38
2023-03-13T15:33:46.465Z,5.45
2023-03-13T15:36:16.436Z,5.57
2023-03-13T15:38:43.717Z,5.28
2023-03-13T15:41:14.013Z,4.93
2023-03-13T15:43:46.284Z,6.90
2023-03-13T15:46:28.803Z,5.97
2023-03-13T15:48:58.749Z,4.90
2023-03-13T15:51:28.288Z,6.45
2023-03-13T15:53:55.447Z,5.38
2023-03-13T15:56:23.497Z,5.78
2023-03-13T15:58:53.984Z,5.70
2023-03-13T16:01:23.511Z,5.90
2023-03-13T16:04:00.816Z,8.02
2023-03-13T16:06:36.606Z,5.70
2023-03-13T16:09:11.104Z,5.45
2023-03-13T16:12:25.997Z,6.55
2023-03-13T16:14:58.015Z,5.55
2023-03-13T16:17:33.100Z,5.70
2023-03-13T16:20:00.220Z,4.40
2023-03-13T16:22:35.467Z,4.65
2023-03-13T16:25:02.513Z,5.95
2023-03-13T16:27:34.307Z,6.97
2023-03-13T16:30:07.239Z,4.78
2023-03-13T16:32:34.675Z,5.95
2023-03-13T16:35:02.443Z,4.20
2023-03-13T16:37:36.858Z,5.43
2023-03-13T16:40:32.814Z,5.90
2023-03-13T16:43:01.122Z,5.35
2023-03-13T16:45:30.747Z,5.70
2023-03-13T16:48:03.639Z,5.07
2023-03-13T16:50:39.948Z,5.67
2023-03-13T16:53:09.225Z,4.80
2023-03-13T16:55:42.792Z,5.05
2023-03-13T17:00:41.839Z,5.28
2023-03-13T17:03:11.866Z,5.32
2023-03-13T17:05:48.367Z,5.95
2023-03-13T17:08:15.628Z,5.28
2023-03-13T17:10:43.279Z,4.20
2023-03-13T17:13:10.842Z,5.00
2023-03-13T17:15:39.344Z,3.70
2023-03-13T17:18:10.565Z,3.95
2023-03-13T17:20:42.886Z,6.20
2023-03-13T17:23:19.770Z,4.90
2023-03-13T17:25:56.352Z,4.75
2023-03-13T17:28:30.292Z,4.43
2023-03-13T17:31:00.592Z,4.82
2023-03-13T17:33:33.719Z,4.40
2023-03-13T17:36:22.519Z,4.00
2023-03-13T17:38:57.600Z,4.50
2023-03-13T17:41:39.596Z,4.00
2023-03-13T17:44:11.434Z,3.63
2023-03-13T17:46:42.539Z,4.38
2023-03-13T17:49:17.194Z,4.60
2023-03-13T17:51:49.409Z,3.28
2023-03-13T17:54:16.726Z,4.13
2023-03-13T17:56:44.510Z,4.55
2023-03-13T17:59:19.431Z,4.60
2023-03-13T18:01:47.114Z,3.97
2023-03-13T18:04:19.289Z,3.97
2023-03-13T18:06:54.858Z,4.75
2023-03-13T18:09:36.120Z,4.78
2023-03-13T18:12:12.176Z,5.57
2023-03-13T18:14:49.943Z,4.78
2023-03-13T18:17:32.890Z,4.45
2023-03-13T18:20:02.702Z,4.57
2023-03-13T18:22:31.228Z,4.50
2023-03-13T18:25:09.621Z,4.50
2023-03-13T18:27:37.271Z,4.57
2023-03-13T18:30:07.425Z,4.35
2023-03-13T18:32:34.756Z,4.55
2023-03-13T18:35:02.016Z,4.25
2023-03-13T18:37:33.429Z,4.30
2023-03-13T18:40:11.790Z,5.07
2023-03-13T18:42:42.441Z,4.25
2023-03-13T18:45:26.312Z,4.20
2023-03-13T18:47:53.962Z,4.63
2023-03-13T18:51:11.877Z,5.43
2023-03-13T18:53:42.248Z,5.15
2023-03-13T18:56:32.719Z,5.90
2023-03-13T18:59:16.020Z,5.47
2023-03-13T19:01:52.728Z,5.70
2023-03-13T19:06:56.236Z,6.23
2023-03-13T19:09:43.640Z,5.68
2023-03-13T19:12:12.130Z,5.50
2023-03-13T19:14:40.661Z,6.40
2023-03-13T19:17:27.041Z,5.60
2023-03-13T19:20:05.632Z,6.15
2023-03-13T19:22:41.712Z,6.65
2023-03-13T19:25:22.563Z,6.43
2023-03-13T19:27:53.301Z,6.53
2023-03-13T19:30:28.253Z,5.60
2023-03-13T19:33:02.723Z,6.63
2023-03-13T19:35:34.260Z,6.18
2023-03-13T19:38:04.658Z,7.38
2023-03-13T19:40:34.940Z,6.40
2023-03-13T19:43:05.592Z,7.30
2023-03-13T19:45:39.008Z,6.50
2023-03-13T19:48:08.159Z,6.85
2023-03-13T19:50:40.128Z,7.37
2023-03-13T19:53:20.302Z,7.07
2023-03-13T19:55:55.550Z,7.15
2023-03-13T19:58:41.023Z,7.45
2023-03-13T20:01:17.326Z,6.80
2023-03-13T20:03:57.128Z,7.10
2023-03-13T20:06:41.083Z,6.55
2023-03-13T20:09:24.616Z,7.38
2023-03-13T20:12:16.651Z,7.20
2023-03-13T20:14:55.615Z,7.20
2023-03-13T20:17:27.137Z,8.05
2023-03-13T20:20:02.571Z,7.20
2023-03-13T20:22:33.297Z,6.60
2023-03-13T20:25:04.916Z,7.18
2023-03-13T20:27:35.691Z,6.28
2023-03-13T20:30:15.870Z,7.38
2023-03-13T20:32:59.324Z,6.78
2023-03-13T20:35:43.144Z,6.70
2023-03-13T20:38:24.623Z,7.05
2023-03-13T20:43:54.952Z,7.78
2023-03-13T20:46:25.897Z,7.18
2023-03-13T20:49:02.289Z,7.35
2023-03-13T20:51:34.303Z,6.60
2023-03-13T20:54:18.611Z,6.43
2023-03-13T20:56:52.246Z,6.43
2023-03-13T20:59:31.327Z,7.55
2023-03-13T21:02:13.157Z,6.53
2023-03-13T21:04:45.604Z,7.22
2023-03-13T21:07:12.993Z,6.63
2023-03-13T21:09:50.962Z,7.13
2023-03-13T21:15:16.656Z,6.60
2023-03-13T21:17:49.989Z,7.55
2023-03-13T21:20:19.745Z,7.50
2023-03-13T21:22:54.953Z,6.65
2023-03-13T21:25:28.775Z,7.00
2023-03-13T21:27:59.470Z,8.85
2023-03-13T21:30:27.459Z,7.65
2023-03-13T21:33:11.710Z,8.00
2023-03-13T21:35:41.751Z,7.40
2023-03-13T21:38:13.444Z,7.47
2023-03-13T21:40:43.706Z,8.80
2023-03-13T21:43:20.267Z,6.97
2023-03-13T21:45:52.162Z,3.30
2023-03-13T21:51:18.224Z,1.70
2023-03-13T21:53:45.693Z,1.77
2023-03-13T21:56:23.569Z,2.08
2023-03-13T21:58:54.319Z,2.08
2023-03-13T22:01:28.796Z,2.33
2023-03-13T22:04:09.524Z,2.08
2023-03-13T22:07:00.395Z,1.60
2023-03-13T22:09:40.625Z,1.50
2023-03-13T22:12:18.765Z,1.50
2023-03-13T22:14:56.119Z,2.45
2023-03-13T22:17:55.238Z,1.20
2023-03-13T22:20:39.710Z,1.42
2023-03-13T22:23:13.221Z,1.20
2023-03-13T22:28:45.706Z,3.50
2023-03-13T22:31:27.303Z,1.25
2023-03-13T22:34:03.531Z,1.20
2023-03-13T22:36:46.867Z,1.35
2023-03-13T22:39:30.196Z,1.60
2023-03-13T22:42:03.750Z,1.20
2023-03-13T22:44:44.612Z,1.60
2023-03-13T22:47:26.162Z,1.20
2023-03-13T22:50:09.579Z,0.85
2023-03-13T22:52:47.962Z,0.88
2023-03-13T22:55:27.481Z,1.10
2023-03-13T22:58:14.242Z,1.45
2023-03-13T23:00:54.973Z,1.20
2023-03-13T23:03:35.286Z,1.05
2023-03-13T23:06:26.272Z,1.00
2023-03-13T23:09:14.884Z,0.90
2023-03-13T23:12:07.075Z,1.42
2023-03-13T23:14:48.933Z,1.35
2023-03-13T23:17:32.250Z,1.00
2023-03-13T23:20:16.684Z,0.52
2023-03-13T23:22:59.058Z,0.90
2023-03-13T23:25:41.292Z,0.70
2023-03-13T23:28:23.388Z,0.70
2023-03-13T23:31:04.460Z,0.60
2023-03-13T23:33:49.908Z,0.55
2023-03-13T23:36:36.358Z,0.52
2023-03-13T23:39:44.046Z,0.80
2023-03-13T23:42:35.472Z,0.40
2023-03-13T23:45:18.780Z,0.60
2023-03-13T23:48:05.099Z,1.08
2023-03-13T23:50:42.956Z,0.80
2023-03-13T23:53:21.085Z,0.75
2023-03-13T23:56:00.958Z,0.60
2023-03-13T23:58:33.675Z,0.90
